Time;durP1;ratioP1;P1;durP2;ratioP2;P2;SDS_P1;SDS_P2;PMS_P1;PMS_P2;Temp;Humidity;BMP_temperature;BMP_pressure;BME280_temperature;BME280_humidity;BME280_pressure;Samples;Min_cycle;Max_cycle;Signal;HPM_P1;HPM_P2
2023/05/11 00:01:32;;;;;;;8.90;4.70;;;;;;;10.68;77.23;97435.78;5047130;28;20713;-74
2023/05/11 00:03:59;;;;;;;8.87;5.27;;;;;;;10.81;77.36;97451.69;5047066;28;20179;-74
2023/05/11 00:06:27;;;;;;;8.57;5.47;;;;;;;10.75;77.49;97446.75;5047239;28;20684;-74
2023/05/11 00:08:54;;;;;;;8.03;5.10;;;;;;;10.47;78.48;97446.97;5046774;28;20229;-74
2023/05/11 00:11:22;;;;;;;6.97;4.57;;;;;;;10.53;78.45;97445.00;5047215;28;20782;-74
2023/05/11 00:13:49;;;;;;;6.37;5.40;;;;;;;10.40;79.21;97450.72;5046968;28;20210;-74
2023/05/11 00:16:17;;;;;;;7.43;4.90;;;;;;;10.43;78.57;97450.59;5046953;28;20634;-74
2023/05/11 00:18:44;;;;;;;6.03;4.70;;;;;;;10.38;79.25;97447.34;5046874;28;20770;-74
2023/05/11 00:21:11;;;;;;;9.17;5.07;;;;;;;10.30;79.75;97452.00;5046981;28;20179;-74
2023/05/11 00:23:38;;;;;;;5.90;5.00;;;;;;;10.30;79.51;97445.06;5047111;28;20203;-74
2023/05/11 00:26:05;;;;;;;7.90;5.70;;;;;;;10.01;80.33;97442.69;5047096;28;20194;-74
2023/05/11 00:28:32;;;;;;;9.03;5.37;;;;;;;10.05;80.72;97453.78;5046557;28;20225;-74
2023/05/11 00:30:59;;;;;;;10.50;5.67;;;;;;;10.13;80.58;97456.94;5045320;28;20201;-73
2023/05/11 00:33:27;;;;;;;8.33;5.27;;;;;;;9.91;81.48;97448.25;5045308;28;20189;-73
2023/05/11 00:35:54;;;;;;;11.53;5.50;;;;;;;9.96;81.02;97461.84;5046779;28;20186;-73
2023/05/11 00:38:21;;;;;;;10.70;5.47;;;;;;;9.93;81.98;97462.00;5046645;28;20213;-73
2023/05/11 00:40:48;;;;;;;8.00;5.50;;;;;;;9.93;81.09;97459.41;5045514;28;20178;-73
2023/05/11 00:43:16;;;;;;;7.10;4.90;;;;;;;9.90;81.12;97464.66;5046844;28;20182;-73
2023/05/11 00:45:46;;;;;;;8.30;5.67;;;;;;;9.63;82.63;97475.09;5046674;28;20362;-73
2023/05/11 00:48:15;;;;;;;9.83;6.17;;;;;;;9.42;83.11;97468.09;5045170;28;20218;-73
2023/05/11 00:50:42;;;;;;;7.53;5.50;;;;;;;9.31;83.53;97480.56;5046432;28;20193;-73
2023/05/11 00:53:10;;;;;;;9.47;5.70;;;;;;;9.26;84.59;97481.59;5045209;28;20190;-73
2023/05/11 00:55:37;;;;;;;9.60;6.37;;;;;;;9.15;84.85;97474.19;5046733;28;20603;-73
2023/05/11 00:58:04;;;;;;;7.23;5.57;;;;;;;9.23;85.18;97487.72;5049592;28;20213;-74
2023/05/11 01:00:32;;;;;;;11.70;6.47;;;;;;;9.26;84.80;97476.41;5050372;28;20197;-73
2023/05/11 01:03:00;;;;;;;11.80;6.37;;;;;;;9.27;84.77;97484.13;5049227;28;20185;-73
2023/05/11 01:05:57;;;;;;;7.63;5.83;;;;;;;8.79;83.84;97382.44;5050404;28;20194;-74
2023/05/11 01:08:41;;;;;;;9.17;5.90;;;;;;;9.47;83.37;97479.13;5039844;28;20237;-74
2023/05/11 01:11:16;;;;;;;11.90;6.20;;;;;;;9.48;83.18;97480.81;5049243;28;20269;-73
2023/05/11 01:13:50;;;;;;;8.83;5.20;;;;;;;9.40;82.64;97487.13;5050433;28;20276;-73
2023/05/11 01:16:20;;;;;;;9.57;5.43;;;;;;;9.41;82.78;97487.09;5048021;28;20685;-74
2023/05/11 01:19:05;;;;;;;7.97;5.00;;;;;;;9.70;81.75;97494.69;5048562;28;20196;-74
2023/05/11 01:21:33;;;;;;;10.87;5.40;;;;;;;9.62;82.16;97488.09;5048629;28;20577;-74
2023/05/11 01:24:19;;;;;;;7.70;5.13;;;;;;;9.75;81.04;97489.34;5050411;28;20190;-74
2023/05/11 01:27:05;;;;;;;6.50;4.97;;;;;;;9.87;80.04;97488.91;5049635;28;20186;-74
2023/05/11 01:30:15;;;;;;;12.90;5.87;;;;;;;10.07;79.77;97490.78;5049777;28;20233;-73
2023/05/11 01:32:43;;;;;;;9.17;5.47;;;;;;;10.06;79.37;97494.25;5049946;28;20185;-74
2023/05/11 01:35:16;;;;;;;8.53;5.37;;;;;;;9.96;79.33;97490.31;5049721;28;20677;-74
2023/05/11 01:37:49;;;;;;;9.33;5.87;;;;;;;10.21;79.02;97493.72;5050049;28;20247;-73
2023/05/11 01:40:20;;;;;;;6.20;4.97;;;;;;;10.14;78.47;97485.34;5049676;28;20235;-74
2023/05/11 01:42:53;;;;;;;17.37;7.33;;;;;;;9.93;79.63;97485.28;5049648;28;20213;-74
2023/05/11 01:45:22;;;;;;;9.73;5.97;;;;;;;9.83;80.20;97493.34;5031768;28;20202;-74
2023/05/11 01:47:50;;;;;;;9.57;5.53;;;;;;;9.61;80.73;97492.41;5048040;28;20232;-74
2023/05/11 01:50:18;;;;;;;9.47;5.77;;;;;;;9.63;80.14;97485.44;5048328;28;20218;-75
2023/05/11 01:52:48;;;;;;;9.33;5.60;;;;;;;9.43;82.00;97471.53;5047971;28;20584;-74
2023/05/11 01:55:17;;;;;;;7.93;4.87;;;;;;;9.41;83.08;97474.16;5049211;28;20186;-74
2023/05/11 01:57:47;;;;;;;9.47;5.80;;;;;;;9.28;83.16;97480.63;5049322;28;20193;-74
2023/05/11 02:00:15;;;;;;;9.17;6.53;;;;;;;9.37;82.23;97466.56;5047878;28;20187;-74
2023/05/11 02:02:46;;;;;;;8.13;5.33;;;;;;;9.70;81.47;97479.19;5049533;28;20679;-74
2023/05/11 02:05:22;;;;;;;5.80;5.20;;;;;;;9.68;79.67;97470.63;5049117;28;20202;-73
2023/05/11 02:07:53;;;;;;;7.30;5.97;;;;;;;9.72;78.62;97461.88;5030944;28;20275;-73
2023/05/11 02:10:24;;;;;;;8.60;5.20;;;;;;;9.97;78.19;97471.31;5031227;28;20264;-73
2023/05/11 02:12:53;;;;;;;6.43;4.97;;;;;;;9.99;78.17;97474.69;5047761;28;20282;-74
2023/05/11 02:15:24;;;;;;;7.53;5.40;;;;;;;10.13;77.47;97482.81;5047750;28;20232;-74
2023/05/11 02:17:52;;;;;;;9.03;5.03;;;;;;;10.27;77.36;97488.31;5047638;28;20273;-74
2023/05/11 02:20:21;;;;;;;8.83;5.40;;;;;;;9.97;78.07;97469.59;5031571;28;20638;-74
2023/05/11 02:22:49;;;;;;;6.63;5.40;;;;;;;10.30;77.12;97488.22;5048738;28;20198;-74
2023/05/11 02:25:17;;;;;;;9.57;5.70;;;;;;;10.36;76.53;97459.53;5047540;28;20192;-74
2023/05/11 02:27:45;;;;;;;6.50;5.27;;;;;;;10.44;76.76;97478.19;5047383;28;20258;-74
2023/05/11 02:30:13;;;;;;;7.70;5.60;;;;;;;10.47;77.10;97478.91;5047235;28;20234;-75
2023/05/11 02:32:47;;;;;;;9.00;5.50;;;;;;;10.53;77.27;97480.44;5047680;28;20219;-75
2023/05/11 02:35:22;;;;;;;9.93;5.63;;;;;;;10.61;76.45;97479.22;5048623;28;20193;-73
2023/05/11 02:37:54;;;;;;;8.37;5.53;;;;;;;10.70;76.57;97478.00;5047624;28;20182;-73
2023/05/11 02:40:29;;;;;;;9.60;5.80;;;;;;;10.61;76.23;97481.81;5047070;28;20578;-73
2023/05/11 02:43:01;;;;;;;12.70;6.80;;;;;;;10.66;76.11;97473.84;5048394;28;20249;-74
2023/05/11 02:45:33;;;;;;;9.50;5.50;;;;;;;10.73;76.51;97485.69;5047039;28;20189;-74
2023/05/11 02:48:06;;;;;;;9.53;6.00;;;;;;;10.60;76.85;97484.47;5048258;28;20294;-75
2023/05/11 02:50:39;;;;;;;7.33;5.93;;;;;;;10.57;77.45;97492.38;5047115;28;20186;-74
2023/05/11 02:53:13;;;;;;;12.07;6.37;;;;;;;10.44;77.83;97481.63;5046975;28;20640;-74
2023/05/11 02:55:42;;;;;;;8.80;5.33;;;;;;;10.22;78.27;97466.97;5048318;28;20611;-74
2023/05/11 02:58:10;;;;;;;8.77;6.37;;;;;;;10.14;79.49;97474.19;5047142;28;20574;-74
2023/05/11 03:00:42;;;;;;;9.27;6.90;;;;;;;10.07;79.20;97470.94;5047011;28;20185;-74
2023/05/11 03:03:10;;;;;;;10.50;6.40;;;;;;;10.08;79.00;97476.94;5048934;28;20237;-74
2023/05/11 03:05:37;;;;;;;10.63;6.80;;;;;;;10.03;79.25;97481.44;5047021;28;20190;-74
2023/05/11 03:08:04;;;;;;;7.70;6.10;;;;;;;10.05;79.30;97492.59;5031163;28;20268;-73
2023/05/11 03:10:33;;;;;;;11.13;7.17;;;;;;;10.05;79.22;97484.81;5046513;28;20201;-74
2023/05/11 03:13:02;;;;;;;13.10;6.53;;;;;;;10.30;78.73;97483.06;5046860;28;20605;-74
2023/05/11 03:15:30;;;;;;;9.67;7.47;;;;;;;10.19;78.57;97475.69;5043185;28;20186;-74
2023/05/11 03:18:00;;;;;;;10.73;6.90;;;;;;;10.31;78.17;97482.97;5045606;28;20237;-73
2023/05/11 03:20:29;;;;;;;9.20;7.07;;;;;;;10.36;77.69;97486.25;5027096;28;20191;-73
2023/05/11 03:22:57;;;;;;;11.47;7.27;;;;;;;10.22;78.69;97495.44;5059915;28;20201;-74
2023/05/11 03:25:28;;;;;;;10.63;6.97;;;;;;;10.05;78.58;97451.19;5059993;28;20307;-74
2023/05/11 03:27:57;;;;;;;10.83;7.20;;;;;;;10.33;78.08;97499.31;5043106;28;20193;-74
2023/05/11 03:30:27;;;;;;;11.20;6.63;;;;;;;10.16;78.62;97495.66;5059270;28;20240;-74
2023/05/11 03:32:56;;;;;;;8.83;6.20;;;;;;;10.30;78.78;97483.06;5059512;28;20190;-75
2023/05/11 03:35:26;;;;;;;8.67;6.07;;;;;;;10.29;77.43;97496.88;5059337;28;20194;-74
2023/05/11 03:37:59;;;;;;;6.20;4.50;;;;;;;10.27;75.92;97503.84;5009951;28;20202;-73
2023/05/11 03:40:30;;;;;;;7.63;5.40;;;;;;;10.17;76.13;97486.97;5027547;28;20186;-74
2023/05/11 03:43:02;;;;;;;6.50;4.90;;;;;;;10.25;75.38;97484.94;5026472;28;20206;-74
2023/05/11 03:45:32;;;;;;;7.57;5.23;;;;;;;10.41;75.54;97497.25;5060140;28;20273;-74
2023/05/11 03:48:04;;;;;;;11.83;6.30;;;;;;;10.41;76.22;97506.78;5046770;28;20189;-74
2023/05/11 03:50:32;;;;;;;11.13;7.93;;;;;;;10.29;77.30;97489.09;5065932;28;20199;-74
2023/05/11 03:53:00;;;;;;;13.60;7.27;;;;;;;10.67;76.70;97498.03;5049527;28;20182;-74
2023/05/11 03:55:27;;;;;;;12.90;7.80;;;;;;;10.80;76.44;97492.28;5065906;28;20177;-74
2023/05/11 03:57:54;;;;;;;17.73;8.70;;;;;;;11.02;75.77;97511.28;5067269;28;20668;-74
2023/05/11 04:00:21;;;;;;;15.33;8.23;;;;;;;11.09;76.36;97510.13;5067394;28;20818;-74
2023/05/11 04:02:49;;;;;;;13.53;8.57;;;;;;;11.48;74.11;97506.81;5048959;28;20272;-74
2023/05/11 04:05:18;;;;;;;9.57;7.13;;;;;;;11.60;72.26;97501.09;4993937;28;20286;-74
2023/05/11 04:07:47;;;;;;;6.77;5.20;;;;;;;11.69;72.09;97506.78;5025605;28;20242;-74
2023/05/11 04:10:14;;;;;;;5.90;5.07;;;;;;;11.92;70.78;97521.34;5008953;28;20440;-74
2023/05/11 04:13:21;;;;;;;9.40;5.87;;;;;;;11.77;69.86;97524.59;5050186;28;20200;-74
2023/05/11 04:16:43;;;;;;;7.27;4.97;;;;;;;11.12;70.19;97522.13;5065385;28;20194;-74
2023/05/11 04:19:26;;;;;;;7.23;4.40;;;;;;;10.88;69.77;97510.97;5065189;28;20282;-74
2023/05/11 04:21:54;;;;;;;6.00;4.67;;;;;;;10.84;70.48;97514.56;5065660;28;20272;-74
2023/05/11 04:24:21;;;;;;;5.50;4.30;;;;;;;11.00;69.61;97520.88;5065755;28;20201;-75
2023/05/11 04:26:54;;;;;;;9.57;5.00;;;;;;;11.14;68.60;97520.31;5039079;28;20702;-76
2023/05/11 04:29:23;;;;;;;8.10;4.77;;;;;;;10.94;69.18;97504.72;5047126;28;20312;-74
2023/05/11 04:31:52;;;;;;;6.07;4.73;;;;;;;10.99;68.17;97513.13;5039639;28;20269;-74
2023/05/11 04:34:22;;;;;;;6.60;4.60;;;;;;;10.85;69.47;97490.38;5054684;28;20529;-74
2023/05/11 04:36:51;;;;;;;8.53;4.57;;;;;;;10.84;69.66;97524.13;5029893;28;20261;-74
2023/05/11 04:39:21;;;;;;;7.87;5.10;;;;;;;10.79;68.84;97466.44;5029483;28;20284;-75
2023/05/11 04:41:51;;;;;;;8.20;4.80;;;;;;;11.46;67.57;97510.31;5045714;28;20296;-74
2023/05/11 04:44:19;;;;;;;6.07;4.70;;;;;;;11.71;67.27;97528.31;5045796;28;20256;-75
2023/05/11 04:46:55;;;;;;;5.30;4.53;;;;;;;11.77;66.12;97522.00;5047015;28;20189;-74
2023/05/11 04:49:26;;;;;;;9.37;5.90;;;;;;;11.84;67.45;97526.03;5029420;28;20224;-75
2023/05/11 04:51:57;;;;;;;7.53;5.33;;;;;;;11.78;66.64;97521.09;5029040;28;20194;-74
2023/05/11 04:54:32;;;;;;;7.07;4.67;;;;;;;11.88;67.60;97517.19;5045122;28;20838;-75
2023/05/11 04:57:04;;;;;;;11.40;5.47;;;;;;;11.85;67.10;97517.34;5045209;28;20228;-75
2023/05/11 04:59:40;;;;;;;10.00;5.30;;;;;;;11.80;67.97;97509.75;5046982;28;20208;-74
2023/05/11 05:02:16;;;;;;;6.80;5.10;;;;;;;12.06;66.39;97532.81;5045372;28;20283;-75
2023/05/11 05:04:44;;;;;;;7.77;5.27;;;;;;;12.24;66.26;97528.59;5028829;28;20656;-75
2023/05/11 05:07:11;;;;;;;7.73;4.00;;;;;;;12.44;65.35;97528.53;5045110;28;20239;-77
2023/05/11 05:09:40;;;;;;;8.57;5.00;;;;;;;12.47;65.21;97515.38;5044932;28;20245;-75
2023/05/11 05:12:15;;;;;;;9.23;4.30;;;;;;;12.18;65.55;97521.03;5045132;28;20857;-75
2023/05/11 05:14:42;;;;;;;5.83;3.67;;;;;;;12.37;65.06;97526.25;5012147;28;20209;-74
2023/05/11 05:17:09;;;;;;;11.23;5.13;;;;;;;12.54;64.54;97535.00;5050495;28;20587;-74
2023/05/11 05:19:38;;;;;;;9.07;4.40;;;;;;;12.52;64.21;97531.63;5060193;28;20218;-73
2023/05/11 05:22:07;;;;;;;8.23;4.20;;;;;;;12.45;64.76;97530.19;5048854;28;20599;-74
2023/05/11 05:24:37;;;;;;;5.70;4.67;;;;;;;12.51;64.25;97535.13;5028556;28;20192;-74
2023/05/11 05:27:04;;;;;;;6.90;4.47;;;;;;;12.31;64.34;97532.59;5044741;28;20893;-73
2023/05/11 05:29:32;;;;;;;8.53;5.03;;;;;;;12.38;64.68;97534.00;5044401;28;20307;-75
2023/05/11 05:31:59;;;;;;;7.63;5.00;;;;;;;12.34;64.68;97510.81;5044332;28;20205;-74
2023/05/11 05:34:27;;;;;;;7.50;4.30;;;;;;;12.41;64.88;97527.81;5027969;28;20195;-74
2023/05/11 05:36:54;;;;;;;6.50;3.90;;;;;;;11.76;65.73;97500.41;5028072;28;20203;-74
2023/05/11 05:39:23;;;;;;;9.33;4.13;;;;;;;12.44;65.59;97538.91;5044652;28;20184;-75
2023/05/11 05:41:51;;;;;;;5.00;3.43;;;;;;;11.78;66.51;97536.66;5028016;28;20719;-74
2023/05/11 05:44:18;;;;;;;7.67;3.60;;;;;;;11.84;66.60;97529.47;5047215;28;20193;-74
2023/05/11 05:46:48;;;;;;;6.70;3.67;;;;;;;11.72;66.35;97531.75;5049289;28;20197;-73
2023/05/11 05:49:17;;;;;;;3.90;3.53;;;;;;;12.13;65.05;97531.66;5047669;28;20698;-73
2023/05/11 05:51:46;;;;;;;3.97;3.00;;;;;;;12.16;64.03;97539.28;5081520;28;20207;-74
2023/05/11 05:54:13;;;;;;;4.23;2.93;;;;;;;12.48;62.25;97504.09;5048313;28;20271;-74
2023/05/11 05:56:41;;;;;;;4.47;3.20;;;;;;;12.63;61.86;97544.94;5047931;28;20193;-75
2023/05/11 05:59:09;;;;;;;4.40;3.50;;;;;;;12.61;62.67;97525.97;5031519;28;20927;-73
2023/05/11 06:01:43;;;;;;;8.63;4.20;;;;;;;12.97;61.96;97544.22;5033125;28;20206;-72
2023/05/11 06:04:12;;;;;;;6.97;4.00;;;;;;;12.88;62.07;97548.09;5053208;28;20201;-74
2023/05/11 06:06:40;;;;;;;3.60;3.20;;;;;;;13.02;61.20;97555.28;5034352;28;20258;-74
2023/05/11 06:09:08;;;;;;;5.13;3.80;;;;;;;13.10;60.33;97570.53;5048233;28;20215;-75
2023/05/11 06:11:37;;;;;;;7.17;4.60;;;;;;;12.54;61.53;97563.56;5047733;28;20207;-74
2023/05/11 06:14:04;;;;;;;7.87;3.70;;;;;;;12.28;60.78;97532.72;5049126;28;20186;-74
2023/05/11 06:16:31;;;;;;;8.43;4.87;;;;;;;12.72;61.02;97572.28;5030673;28;20648;-74
2023/05/11 06:18:59;;;;;;;6.27;4.93;;;;;;;12.95;59.62;97565.09;5047235;28;20217;-73
2023/05/11 06:21:27;;;;;;;6.87;4.97;;;;;;;13.32;58.87;97568.59;5030441;28;20207;-74
2023/05/11 06:23:55;;;;;;;4.33;3.60;;;;;;;12.19;60.35;97567.72;5047043;28;20263;-76
2023/05/11 06:26:24;;;;;;;3.97;2.80;;;;;;;11.64;63.10;97573.56;5047305;28;20189;-72
2023/05/11 06:28:55;;;;;;;5.33;3.50;;;;;;;12.24;63.08;97562.34;5046772;28;20225;-74
2023/05/11 06:31:23;;;;;;;4.80;3.30;;;;;;;12.73;60.90;97567.03;5047338;28;20201;-74
2023/05/11 06:33:51;;;;;;;10.77;4.47;;;;;;;13.28;59.73;97564.44;5030160;28;20279;-74
2023/05/11 06:36:24;;;;;;;3.53;3.17;;;;;;;13.69;57.67;97565.88;5046438;28;20206;-74
2023/05/11 06:38:52;;;;;;;4.80;3.00;;;;;;;13.39;57.88;97562.19;5048682;28;20292;-73
2023/05/11 06:41:21;;;;;;;6.23;4.10;;;;;;;13.62;57.79;97559.31;5046661;28;20184;-74
2023/05/11 06:43:48;;;;;;;4.10;2.80;;;;;;;13.55;57.84;97543.16;5047082;28;20201;-74
2023/05/11 06:46:25;;;;;;;4.03;2.60;;;;;;;13.06;58.94;97565.47;5047290;28;20685;-73
2023/05/11 06:48:54;;;;;;;4.53;2.80;;;;;;;12.87;60.18;97554.22;5033794;28;20682;-74
2023/05/11 06:51:25;;;;;;;4.80;2.80;;;;;;;12.89;59.83;97552.41;5033088;28;20683;-74
2023/05/11 06:53:55;;;;;;;8.33;3.53;;;;;;;13.21;59.28;97558.69;5046414;28;20196;-75
2023/05/11 06:56:22;;;;;;;4.67;3.27;;;;;;;13.42;59.01;97560.25;5046711;28;20212;-73
2023/05/11 06:59:04;;;;;;;4.20;2.83;;;;;;;12.90;59.18;97559.25;5062089;28;20192;-75
2023/05/11 07:01:35;;;;;;;4.13;3.03;;;;;;;13.00;59.43;97557.91;5047382;28;20771;-75
2023/05/11 07:04:04;;;;;;;7.87;3.37;;;;;;;12.81;59.57;97564.91;5048163;28;20190;-77
2023/05/11 07:06:32;;;;;;;6.10;4.13;;;;;;;13.02;59.96;97563.06;5046811;28;20562;-74
2023/05/11 07:09:02;;;;;;;9.60;4.43;;;;;;;12.94;59.49;97558.22;5047354;28;20202;-72
2023/05/11 07:11:29;;;;;;;8.37;4.13;;;;;;;13.51;58.52;97558.97;5045793;28;20213;-74
2023/05/11 07:13:58;;;;;;;3.50;2.93;;;;;;;12.93;60.16;97561.75;5046073;28;20194;-73
2023/05/11 07:16:25;;;;;;;4.57;3.00;;;;;;;13.42;58.40;97533.41;5045977;28;20226;-75
2023/05/11 07:18:52;;;;;;;5.07;2.93;;;;;;;13.68;58.00;97548.59;5046236;28;20191;-72
2023/05/11 07:21:22;;;;;;;4.53;2.70;;;;;;;14.10;58.22;97540.34;5047220;28;20197;-73
2023/05/11 07:23:48;;;;;;;3.63;2.70;;;;;;;13.47;58.01;97552.25;5028811;28;20656;-72
2023/05/11 07:26:15;;;;;;;5.37;3.67;;;;;;;13.95;58.47;97541.97;5047115;28;20253;-73
2023/05/11 07:28:43;;;;;;;6.63;4.17;;;;;;;13.91;58.28;97548.25;5046821;28;20229;-73
2023/05/11 07:31:10;;;;;;;7.37;5.27;;;;;;;14.46;57.86;97539.31;5045962;28;20231;-74
2023/05/11 07:33:39;;;;;;;8.90;3.50;;;;;;;14.46;56.15;97543.66;5050326;28;20199;-74
2023/05/11 07:36:06;;;;;;;4.13;3.27;;;;;;;14.14;58.01;97541.84;5050204;28;20197;-74
2023/05/11 07:38:35;;;;;;;7.83;3.57;;;;;;;14.27;56.32;97548.97;5045915;28;20202;-74
2023/05/11 07:41:02;;;;;;;4.10;3.00;;;;;;;14.43;57.29;97544.66;5046998;28;20192;-75
2023/05/11 07:43:32;;;;;;;6.53;3.77;;;;;;;14.77;56.56;97553.28;5045351;28;20285;-73
2023/05/11 07:45:59;;;;;;;6.37;4.00;;;;;;;14.84;56.04;97547.66;5044825;28;20202;-74
2023/05/11 07:48:27;;;;;;;7.40;3.43;;;;;;;14.71;55.87;97512.75;5045451;28;20280;-73
2023/05/11 07:50:55;;;;;;;4.93;3.00;;;;;;;14.17;56.49;97536.50;5046920;28;20830;-73
2023/05/11 07:53:22;;;;;;;5.87;3.20;;;;;;;14.00;56.92;97528.72;5048298;28;20184;-72
2023/05/11 07:55:50;;;;;;;6.27;3.17;;;;;;;14.41;56.27;97530.03;5049359;28;20268;-73
2023/05/11 07:58:17;;;;;;;5.47;3.20;;;;;;;14.78;55.94;97540.16;5047678;28;20198;-71
2023/05/11 08:00:45;;;;;;;4.63;3.50;;;;;;;14.94;56.06;97551.44;5047693;28;20287;-73
2023/05/11 08:03:14;;;;;;;7.27;4.07;;;;;;;14.69;56.79;97551.13;5047384;28;20669;-74
2023/05/11 08:05:42;;;;;;;9.23;3.73;;;;;;;14.51;57.28;97545.09;5045723;28;20635;-74
2023/05/11 08:08:09;;;;;;;5.90;3.53;;;;;;;14.74;56.76;97558.66;5046570;28;20207;-73
2023/05/11 08:10:38;;;;;;;4.83;3.07;;;;;;;14.19;56.03;97540.72;5046677;28;20271;-73
2023/05/11 08:13:05;;;;;;;6.47;3.50;;;;;;;14.60;56.45;97549.84;5046304;28;20203;-73
2023/05/11 08:15:33;;;;;;;6.63;3.77;;;;;;;14.54;56.00;97546.72;5046502;28;20186;-74
2023/05/11 08:18:05;;;;;;;6.87;3.07;;;;;;;14.26;55.85;97546.47;5048638;28;20184;-73
2023/05/11 08:20:35;;;;;;;4.70;3.00;;;;;;;14.25;56.33;97544.75;5049573;28;20195;-73
2023/05/11 08:23:03;;;;;;;8.87;3.30;;;;;;;14.30;54.90;97541.00;5047901;28;20206;-74
2023/05/11 08:25:31;;;;;;;7.13;4.17;;;;;;;14.63;53.51;97556.66;5045431;28;20563;-74
2023/05/11 08:27:58;;;;;;;4.27;2.80;;;;;;;14.89;53.54;97550.00;5046833;28;20190;-74
2023/05/11 08:30:25;;;;;;;3.60;2.60;;;;;;;15.00;53.00;97540.66;5045928;28;20238;-73
2023/05/11 08:32:57;;;;;;;4.80;3.10;;;;;;;14.98;54.19;97549.53;5046166;28;20276;-77
2023/05/11 08:35:29;;;;;;;5.13;3.00;;;;;;;15.17;53.67;97547.56;5045728;28;20680;-75
2023/05/11 08:37:56;;;;;;;5.90;3.27;;;;;;;15.52;52.80;97538.59;5045467;28;20198;-73
2023/05/11 08:40:26;;;;;;;4.93;2.90;;;;;;;15.05;53.65;97559.53;5045988;28;20212;-75
2023/05/11 08:42:55;;;;;;;5.73;4.17;;;;;;;14.84;54.67;97544.22;5045924;28;20742;-73
2023/05/11 08:45:25;;;;;;;4.27;3.03;;;;;;;15.00;54.62;97537.25;5044708;28;20192;-74
2023/05/11 08:47:53;;;;;;;3.73;3.00;;;;;;;14.94;54.26;97550.63;5044819;28;20193;-74
2023/05/11 08:50:21;;;;;;;4.93;3.20;;;;;;;14.98;54.58;97550.34;5044067;28;20582;-74
2023/05/11 08:52:48;;;;;;;5.97;3.60;;;;;;;14.83;54.81;97537.31;5044270;28;20198;-73
2023/05/11 08:55:16;;;;;;;5.97;3.33;;;;;;;14.94;54.05;97540.19;5044326;28;20731;-72
2023/05/11 08:57:45;;;;;;;4.70;3.17;;;;;;;14.72;54.44;97543.09;5045859;28;20194;-75
2023/05/11 09:00:15;;;;;;;3.73;2.57;;;;;;;14.56;55.11;97550.94;5045761;28;20197;-73
2023/05/11 09:02:42;;;;;;;6.80;3.40;;;;;;;14.84;53.87;97539.81;5046036;28;20738;-75
2023/05/11 09:05:10;;;;;;;4.60;3.03;;;;;;;15.10;53.58;97534.03;5054339;28;20188;-74
2023/05/11 09:07:40;;;;;;;9.07;4.50;;;;;;;15.32;54.48;97541.47;5051639;28;20195;-73
2023/05/11 09:10:08;;;;;;;9.23;5.20;;;;;;;15.41;53.78;97539.19;5046477;28;20209;-73
2023/05/11 09:12:38;;;;;;;4.73;3.10;;;;;;;15.53;52.92;97540.31;5045440;28;20190;-74
2023/05/11 09:15:07;;;;;;;3.30;2.70;;;;;;;15.40;52.53;97537.53;5045760;28;20186;-76
2023/05/11 09:17:34;;;;;;;4.13;3.20;;;;;;;15.55;52.50;97527.16;5045313;28;20191;-74
2023/05/11 09:20:06;;;;;;;5.40;2.70;;;;;;;15.72;52.29;97535.72;5049396;28;20308;-73
2023/05/11 09:22:42;;;;;;;3.10;2.80;;;;;;;15.26;52.53;97524.41;5047197;28;20210;-73
2023/05/11 09:25:15;;;;;;;3.33;2.50;;;;;;;14.99;53.40;97522.50;5033129;28;20198;-74
2023/05/11 09:28:36;;;;;;;6.77;3.47;;;;;;;15.25;53.23;97519.28;5028149;28;20743;-74
2023/05/11 09:31:59;;;;;;;7.27;3.33;;;;;;;15.41;52.47;97509.66;5026811;28;20241;-75
2023/05/11 09:34:40;;;;;;;6.37;3.10;;;;;;;15.38;51.92;97515.03;5025989;28;20281;-74
2023/05/11 09:37:16;;;;;;;5.23;3.00;;;;;;;15.80;51.93;97516.97;5048762;28;20640;-73
2023/05/11 09:39:44;;;;;;;3.90;2.77;;;;;;;15.91;51.02;97506.75;5047632;28;20286;-75
2023/05/11 09:42:31;;;;;;;4.00;2.40;;;;;;;15.85;51.06;97497.47;5028971;28;20184;-73
2023/05/11 09:44:58;;;;;;;2.70;1.93;;;;;;;15.44;50.66;97501.66;5045350;28;20308;-74
2023/05/11 09:47:26;;;;;;;9.43;4.87;;;;;;;15.03;51.20;97510.97;5048891;28;20240;-74
2023/05/11 09:49:53;;;;;;;3.50;2.20;;;;;;;15.06;51.97;97500.38;5048242;28;20245;-74
2023/05/11 09:53:00;;;;;;;2.53;2.30;;;;;;;15.49;50.57;97491.81;5047565;28;20201;-74
2023/05/11 09:55:52;;;;;;;6.87;2.80;;;;;;;14.78;53.57;97489.78;5047395;28;20206;-74
2023/05/11 09:58:19;;;;;;;6.10;3.40;;;;;;;14.83;53.92;97498.19;5041082;28;20225;-73
2023/05/11 10:00:51;;;;;;;4.37;2.27;;;;;;;15.11;53.39;97488.75;5011275;28;20224;-73
2023/05/11 10:03:19;;;;;;;4.40;2.00;;;;;;;15.39;52.85;97496.66;5027611;28;20186;-76
2023/05/11 10:05:58;;;;;;;3.20;2.57;;;;;;;15.92;51.38;97479.66;5028719;28;20194;-75
2023/05/11 10:08:33;;;;;;;3.07;2.00;;;;;;;15.92;50.76;97496.19;5036451;28;20197;-74
2023/05/11 10:11:05;;;;;;;11.00;3.63;;;;;;;15.44;52.13;97483.41;5048172;28;20224;-73
2023/05/11 10:13:33;;;;;;;2.43;1.83;;;;;;;15.46;50.40;97461.50;5048179;28;20283;-74
2023/05/11 10:16:11;;;;;;;3.40;2.60;;;;;;;15.45;50.42;97485.09;5048273;28;20201;-74
2023/05/11 10:18:39;;;;;;;5.13;2.77;;;;;;;15.81;50.01;97474.22;5048006;28;20190;-75
2023/05/11 10:21:08;;;;;;;5.17;2.03;;;;;;;15.32;51.58;97473.63;5046970;28;20308;-75
2023/05/11 10:23:38;;;;;;;2.83;2.17;;;;;;;14.90;51.71;97476.09;5048057;28;20217;-75
2023/05/11 10:26:07;;;;;;;3.13;2.30;;;;;;;14.72;52.97;97471.88;5048041;28;20216;-75
2023/05/11 10:28:34;;;;;;;3.77;2.27;;;;;;;15.05;52.31;97477.81;5047625;28;20218;-75
2023/05/11 10:31:03;;;;;;;3.07;2.00;;;;;;;15.46;51.62;97476.31;5046609;28;20264;-73
2023/05/11 10:33:31;;;;;;;5.63;2.23;;;;;;;15.66;49.86;97468.16;5046891;28;20190;-75
2023/05/11 10:35:59;;;;;;;3.40;2.63;;;;;;;16.27;49.12;97460.94;5048127;28;20193;-75
2023/05/11 10:38:28;;;;;;;3.13;1.90;;;;;;;16.11;48.29;97464.56;5052873;28;20292;-74
2023/05/11 10:41:03;;;;;;;3.10;1.77;;;;;;;16.18;48.30;97482.38;5038311;28;20203;-72
2023/05/11 10:43:48;;;;;;;3.07;1.93;;;;;;;15.81;48.72;97467.25;5028698;28;20190;-73
2023/05/11 10:46:40;;;;;;;2.63;2.00;;;;;;;16.49;47.98;97460.44;5026954;28;20206;-74
2023/05/11 10:49:40;;;;;;;8.57;2.40;;;;;;;17.03;47.33;97461.34;5027767;28;20195;-73
2023/05/11 10:52:17;;;;;;;5.63;2.00;;;;;;;16.63;47.15;97467.44;5026232;28;20233;-73
2023/05/11 10:54:58;;;;;;;4.30;2.50;;;;;;;15.90;48.40;97461.50;5038388;28;20598;-74
2023/05/11 10:57:36;;;;;;;5.30;2.23;;;;;;;16.25;48.23;97454.09;5047199;28;20280;-75
2023/05/11 11:00:34;;;;;;;3.40;1.70;;;;;;;15.63;48.46;97457.91;5044869;28;20655;-74
2023/05/11 11:03:13;;;;;;;3.57;1.90;;;;;;;15.87;48.57;97459.03;5046594;28;20289;-76
2023/05/11 11:05:42;;;;;;;2.43;2.23;;;;;;;16.43;47.97;97459.97;5047271;28;20569;-73
2023/05/11 11:08:10;;;;;;;2.47;1.50;;;;;;;16.18;47.70;97466.72;5045742;28;20192;-74
2023/05/11 11:10:42;;;;;;;4.30;2.13;;;;;;;16.27;47.40;97466.16;5047285;28;20279;-76
2023/05/11 11:13:12;;;;;;;1.83;1.60;;;;;;;16.22;47.34;97451.66;5079146;28;20198;-76
2023/05/11 11:15:59;;;;;;;4.07;2.33;;;;;;;16.19;48.42;97455.34;5048147;28;20233;-76
2023/05/11 11:18:34;;;;;;;2.83;1.70;;;;;;;16.25;48.03;97460.19;5047370;28;20585;-74
2023/05/11 11:21:03;;;;;;;3.13;1.77;;;;;;;16.18;46.97;97430.13;5045728;28;20215;-74
2023/05/11 11:23:43;;;;;;;2.30;1.90;;;;;;;16.22;47.60;97446.44;5064479;28;20293;-74
2023/05/11 11:26:15;;;;;;;4.87;2.30;;;;;;;16.77;46.90;97428.19;5051646;28;20701;-74
2023/05/11 11:28:52;;;;;;;3.07;1.80;;;;;;;16.35;49.03;97443.91;5051957;28;20189;-73
2023/05/11 11:31:27;;;;;;;4.00;2.17;;;;;;;16.04;49.63;97448.44;5048150;28;20221;-77
2023/05/11 11:34:35;;;;;;;2.10;1.97;;;;;;;15.82;49.48;97447.19;5046931;28;20248;-75
2023/05/11 11:37:07;;;;;;;4.63;2.37;;;;;;;15.88;49.40;97429.41;5045513;28;20208;-75
2023/05/11 11:39:41;;;;;;;2.67;1.70;;;;;;;15.79;49.59;97427.31;5047538;28;20197;-74
2023/05/11 11:42:40;;;;;;;2.67;1.80;;;;;;;15.74;49.40;97429.38;5046474;28;20218;-74
2023/05/11 11:45:28;;;;;;;2.53;2.03;;;;;;;16.09;48.72;97425.44;5050018;28;20202;-75
2023/05/11 11:48:12;;;;;;;2.00;1.70;;;;;;;16.10;49.54;97421.91;5046807;28;20193;-74
2023/05/11 11:50:42;;;;;;;2.37;1.90;;;;;;;15.73;50.81;97419.88;5046945;28;20225;-75
2023/05/11 11:53:40;;;;;;;3.60;2.33;;;;;;;15.91;50.79;97413.53;5046804;28;20186;-75
2023/05/11 11:56:12;;;;;;;2.60;1.83;;;;;;;15.14;52.95;97406.88;5047403;28;20280;-76